sensor_id;sensor_type;location;lat;lon;timestamp;temperature;humidity
5344;DHT22;2694;48.954;8.928;2023-12-29T00:00:51;9.20;99.90
5344;DHT22;2694;48.954;8.928;2023-12-29T00:03:17;9.20;99.90
5344;DHT22;2694;48.954;8.928;2023-12-29T00:05:44;9.20;99.90
5344;DHT22;2694;48.954;8.928;2023-12-29T00:08:11;9.20;99.90
5344;DHT22;2694;48.954;8.928;2023-12-29T00:10:39;9.20;99.90
5344;DHT22;2694;48.954;8.928;2023-12-29T00:13:06;9.30;99.90
5344;DHT22;2694;48.954;8.928;2023-12-29T00:15:33;9.30;99.90
5344;DHT22;2694;48.954;8.928;2023-12-29T00:18:01;9.30;99.90
5344;DHT22;2694;48.954;8.928;2023-12-29T00:20:28;9.40;99.90
5344;DHT22;2694;48.954;8.928;2023-12-29T00:22:55;9.40;99.90
5344;DHT22;2694;48.954;8.928;2023-12-29T00:25:24;9.50;99.90
5344;DHT22;2694;48.954;8.928;2023-12-29T00:27:51;9.40;99.90
5344;DHT22;2694;48.954;8.928;2023-12-29T00:30:18;9.40;99.90
5344;DHT22;2694;48.954;8.928;2023-12-29T00:32:46;9.50;99.90
5344;DHT22;2694;48.954;8.928;2023-12-29T00:35:15;9.40;99.90
5344;DHT22;2694;48.954;8.928;2023-12-29T00:37:42;9.40;99.90
5344;DHT22;2694;48.954;8.928;2023-12-29T00:40:10;9.40;99.90
5344;DHT22;2694;48.954;8.928;2023-12-29T00:42:37;9.40;99.90
5344;DHT22;2694;48.954;8.928;2023-12-29T00:45:06;9.40;99.90
5344;DHT22;2694;48.954;8.928;2023-12-29T00:47:33;9.40;99.90
5344;DHT22;2694;48.954;8.928;2023-12-29T00:50:00;9.40;99.90
5344;DHT22;2694;48.954;8.928;2023-12-29T00:52:29;9.40;99.90
5344;DHT22;2694;48.954;8.928;2023-12-29T00:54:56;9.90;99.90
5344;DHT22;2694;48.954;8.928;2023-12-29T00:57:23;9.30;99.90
5344;DHT22;2694;48.954;8.928;2023-12-29T00:59:50;9.30;99.90
5344;DHT22;2694;48.954;8.928;2023-12-29T01:02:17;9.20;99.90
5344;DHT22;2694;48.954;8.928;2023-12-29T01:04:45;9.20;99.90
5344;DHT22;2694;48.954;8.928;2023-12-29T01:07:12;9.20;99.90
5344;DHT22;2694;48.954;8.928;2023-12-29T01:09:40;9.20;99.90
5344;DHT22;2694;48.954;8.928;2023-12-29T01:12:07;9.20;99.90
5344;DHT22;2694;48.954;8.928;2023-12-29T01:14:37;9.10;99.90
5344;DHT22;2694;48.954;8.928;2023-12-29T01:17:04;9.10;99.90
5344;DHT22;2694;48.954;8.928;2023-12-29T01:19:32;9.10;99.90
5344;DHT22;2694;48.954;8.928;2023-12-29T01:21:59;9.10;99.90
5344;DHT22;2694;48.954;8.928;2023-12-29T01:24:26;9.00;99.90
5344;DHT22;2694;48.954;8.928;2023-12-29T01:26:56;8.90;99.90
5344;DHT22;2694;48.954;8.928;2023-12-29T01:29:23;8.90;99.90
5344;DHT22;2694;48.954;8.928;2023-12-29T01:31:50;8.80;99.90
5344;DHT22;2694;48.954;8.928;2023-12-29T01:34:17;8.90;99.90
5344;DHT22;2694;48.954;8.928;2023-12-29T01:36:44;8.90;99.90
5344;DHT22;2694;48.954;8.928;2023-12-29T01:39:11;8.90;99.90
5344;DHT22;2694;48.954;8.928;2023-12-29T01:41:38;9.00;99.90
5344;DHT22;2694;48.954;8.928;2023-12-29T01:44:32;8.90;99.90
5344;DHT22;2694;48.954;8.928;2023-12-29T01:47:00;9.00;99.90
5344;DHT22;2694;48.954;8.928;2023-12-29T01:49:28;9.00;99.90
5344;DHT22;2694;48.954;8.928;2023-12-29T01:51:57;9.10;99.90
5344;DHT22;2694;48.954;8.928;2023-12-29T01:54:26;9.00;99.90
5344;DHT22;2694;48.954;8.928;2023-12-29T01:56:56;9.10;99.90
5344;DHT22;2694;48.954;8.928;2023-12-29T01:59:27;9.00;99.90
5344;DHT22;2694;48.954;8.928;2023-12-29T02:01:55;9.00;99.90
5344;DHT22;2694;48.954;8.928;2023-12-29T02:04:23;9.10;99.90
5344;DHT22;2694;48.954;8.928;2023-12-29T02:06:51;9.10;99.90
5344;DHT22;2694;48.954;8.928;2023-12-29T02:09:18;9.10;99.90
5344;DHT22;2694;48.954;8.928;2023-12-29T02:11:45;9.10;99.90
5344;DHT22;2694;48.954;8.928;2023-12-29T02:14:13;8.70;99.90
5344;DHT22;2694;48.954;8.928;2023-12-29T02:16:47;9.10;99.90
5344;DHT22;2694;48.954;8.928;2023-12-29T02:19:26;9.10;99.90
5344;DHT22;2694;48.954;8.928;2023-12-29T02:21:58;9.10;99.90
5344;DHT22;2694;48.954;8.928;2023-12-29T02:24:25;9.10;99.90
5344;DHT22;2694;48.954;8.928;2023-12-29T02:27:01;9.10;99.90
5344;DHT22;2694;48.954;8.928;2023-12-29T02:29:31;9.10;99.90
5344;DHT22;2694;48.954;8.928;2023-12-29T02:32:00;9.10;99.90
5344;DHT22;2694;48.954;8.928;2023-12-29T02:34:30;9.10;99.90
5344;DHT22;2694;48.954;8.928;2023-12-29T02:36:59;9.10;99.90
5344;DHT22;2694;48.954;8.928;2023-12-29T02:39:27;9.10;99.90
5344;DHT22;2694;48.954;8.928;2023-12-29T02:41:55;9.10;99.90
5344;DHT22;2694;48.954;8.928;2023-12-29T02:44:23;9.10;99.90
5344;DHT22;2694;48.954;8.928;2023-12-29T02:46:50;9.10;99.90
5344;DHT22;2694;48.954;8.928;2023-12-29T02:49:17;9.20;99.90
5344;DHT22;2694;48.954;8.928;2023-12-29T02:51:44;8.90;99.90
5344;DHT22;2694;48.954;8.928;2023-12-29T02:54:13;9.20;99.90
5344;DHT22;2694;48.954;8.928;2023-12-29T02:56:40;9.20;99.90
5344;DHT22;2694;48.954;8.928;2023-12-29T02:59:09;9.20;99.90
5344;DHT22;2694;48.954;8.928;2023-12-29T03:01:36;9.10;99.90
5344;DHT22;2694;48.954;8.928;2023-12-29T03:04:03;9.10;99.90
5344;DHT22;2694;48.954;8.928;2023-12-29T03:06:30;9.10;99.90
5344;DHT22;2694;48.954;8.928;2023-12-29T03:08:57;9.10;99.90
5344;DHT22;2694;48.954;8.928;2023-12-29T03:11:24;9.10;99.90
5344;DHT22;2694;48.954;8.928;2023-12-29T03:13:51;9.10;99.90
5344;DHT22;2694;48.954;8.928;2023-12-29T03:16:20;9.10;99.90
5344;DHT22;2694;48.954;8.928;2023-12-29T03:18:47;9.10;99.90
5344;DHT22;2694;48.954;8.928;2023-12-29T03:21:14;9.10;99.90
5344;DHT22;2694;48.954;8.928;2023-12-29T03:23:42;9.20;99.90
5344;DHT22;2694;48.954;8.928;2023-12-29T03:26:09;9.20;99.90
5344;DHT22;2694;48.954;8.928;2023-12-29T03:28:36;9.10;99.90
5344;DHT22;2694;48.954;8.928;2023-12-29T03:31:04;9.10;99.90
5344;DHT22;2694;48.954;8.928;2023-12-29T03:33:34;9.10;99.90
5344;DHT22;2694;48.954;8.928;2023-12-29T03:36:01;9.10;99.90
5344;DHT22;2694;48.954;8.928;2023-12-29T03:38:28;9.10;99.90
5344;DHT22;2694;48.954;8.928;2023-12-29T03:40:55;9.10;99.90
5344;DHT22;2694;48.954;8.928;2023-12-29T03:43:22;9.10;99.90
5344;DHT22;2694;48.954;8.928;2023-12-29T03:45:49;9.10;99.90
5344;DHT22;2694;48.954;8.928;2023-12-29T03:48:18;9.10;99.90
5344;DHT22;2694;48.954;8.928;2023-12-29T03:50:47;9.10;99.90
5344;DHT22;2694;48.954;8.928;2023-12-29T03:53:14;9.10;99.90
5344;DHT22;2694;48.954;8.928;2023-12-29T03:55:42;9.10;99.90
5344;DHT22;2694;48.954;8.928;2023-12-29T03:58:09;9.10;99.90
5344;DHT22;2694;48.954;8.928;2023-12-29T04:00:36;9.10;99.90
5344;DHT22;2694;48.954;8.928;2023-12-29T04:03:07;9.00;99.90
5344;DHT22;2694;48.954;8.928;2023-12-29T04:05:34;9.00;99.90
5344;DHT22;2694;48.954;8.928;2023-12-29T04:08:02;8.90;99.90
5344;DHT22;2694;48.954;8.928;2023-12-29T04:10:30;8.80;99.90
5344;DHT22;2694;48.954;8.928;2023-12-29T04:12:58;8.80;99.90
5344;DHT22;2694;48.954;8.928;2023-12-29T04:15:25;8.90;99.90
5344;DHT22;2694;48.954;8.928;2023-12-29T04:17:52;8.80;99.90
5344;DHT22;2694;48.954;8.928;2023-12-29T04:20:19;8.70;99.90
5344;DHT22;2694;48.954;8.928;2023-12-29T04:22:46;8.80;99.90
5344;DHT22;2694;48.954;8.928;2023-12-29T04:25:15;8.80;99.90
5344;DHT22;2694;48.954;8.928;2023-12-29T04:27:42;8.70;99.90
5344;DHT22;2694;48.954;8.928;2023-12-29T04:30:10;8.70;99.90
5344;DHT22;2694;48.954;8.928;2023-12-29T04:32:37;8.70;99.90
5344;DHT22;2694;48.954;8.928;2023-12-29T04:35:05;8.70;99.90
5344;DHT22;2694;48.954;8.928;2023-12-29T04:37:32;8.70;99.90
5344;DHT22;2694;48.954;8.928;2023-12-29T04:39:59;8.70;99.90
5344;DHT22;2694;48.954;8.928;2023-12-29T04:42:28;8.60;99.90
5344;DHT22;2694;48.954;8.928;2023-12-29T04:44:55;8.60;99.90
5344;DHT22;2694;48.954;8.928;2023-12-29T04:47:22;8.60;99.90
5344;DHT22;2694;48.954;8.928;2023-12-29T04:49:49;8.60;99.90
5344;DHT22;2694;48.954;8.928;2023-12-29T04:52:16;8.60;99.90
5344;DHT22;2694;48.954;8.928;2023-12-29T04:54:43;8.50;99.90
5344;DHT22;2694;48.954;8.928;2023-12-29T04:57:11;8.60;99.90
5344;DHT22;2694;48.954;8.928;2023-12-29T04:59:39;8.50;99.90
5344;DHT22;2694;48.954;8.928;2023-12-29T05:02:07;8.50;99.90
5344;DHT22;2694;48.954;8.928;2023-12-29T05:04:34;8.50;99.90
5344;DHT22;2694;48.954;8.928;2023-12-29T05:07:05;8.50;99.90
5344;DHT22;2694;48.954;8.928;2023-12-29T05:09:32;8.50;99.90
5344;DHT22;2694;48.954;8.928;2023-12-29T05:12:00;8.60;99.90
5344;DHT22;2694;48.954;8.928;2023-12-29T05:14:27;8.50;99.90
5344;DHT22;2694;48.954;8.928;2023-12-29T05:16:55;8.60;99.90
5344;DHT22;2694;48.954;8.928;2023-12-29T05:19:22;8.60;99.90
5344;DHT22;2694;48.954;8.928;2023-12-29T05:21:49;8.60;99.90
5344;DHT22;2694;48.954;8.928;2023-12-29T05:24:17;8.50;99.90
5344;DHT22;2694;48.954;8.928;2023-12-29T05:26:44;8.50;99.90
5344;DHT22;2694;48.954;8.928;2023-12-29T05:29:11;8.50;99.90
5344;DHT22;2694;48.954;8.928;2023-12-29T05:31:38;8.50;99.90
5344;DHT22;2694;48.954;8.928;2023-12-29T05:34:07;8.50;99.90
5344;DHT22;2694;48.954;8.928;2023-12-29T05:36:35;8.50;99.90
5344;DHT22;2694;48.954;8.928;2023-12-29T05:39:04;8.50;99.90
5344;DHT22;2694;48.954;8.928;2023-12-29T05:41:32;8.50;99.90
5344;DHT22;2694;48.954;8.928;2023-12-29T05:43:59;8.50;99.90
5344;DHT22;2694;48.954;8.928;2023-12-29T05:46:27;8.50;99.90
5344;DHT22;2694;48.954;8.928;2023-12-29T05:48:54;8.50;99.90
5344;DHT22;2694;48.954;8.928;2023-12-29T05:51:22;8.50;99.90
5344;DHT22;2694;48.954;8.928;2023-12-29T05:53:50;8.50;99.90
5344;DHT22;2694;48.954;8.928;2023-12-29T05:56:17;8.40;99.90
5344;DHT22;2694;48.954;8.928;2023-12-29T05:58:44;8.50;99.90
5344;DHT22;2694;48.954;8.928;2023-12-29T06:01:12;8.40;99.90
5344;DHT22;2694;48.954;8.928;2023-12-29T06:03:39;8.50;99.90
5344;DHT22;2694;48.954;8.928;2023-12-29T06:06:07;8.40;99.90
5344;DHT22;2694;48.954;8.928;2023-12-29T06:08:35;8.40;99.90
5344;DHT22;2694;48.954;8.928;2023-12-29T06:11:03;8.40;99.90
5344;DHT22;2694;48.954;8.928;2023-12-29T06:13:30;8.30;99.90
5344;DHT22;2694;48.954;8.928;2023-12-29T06:15:57;8.30;99.90
5344;DHT22;2694;48.954;8.928;2023-12-29T06:18:24;8.20;99.90
5344;DHT22;2694;48.954;8.928;2023-12-29T06:20:52;8.20;99.90
5344;DHT22;2694;48.954;8.928;2023-12-29T06:23:19;8.10;99.90
5344;DHT22;2694;48.954;8.928;2023-12-29T06:25:48;8.00;99.90
5344;DHT22;2694;48.954;8.928;2023-12-29T06:28:18;8.00;99.90
5344;DHT22;2694;48.954;8.928;2023-12-29T06:30:45;7.90;99.90
5344;DHT22;2694;48.954;8.928;2023-12-29T06:33:12;7.90;99.90
5344;DHT22;2694;48.954;8.928;2023-12-29T06:35:39;7.90;99.90
5344;DHT22;2694;48.954;8.928;2023-12-29T06:38:07;7.90;99.90
5344;DHT22;2694;48.954;8.928;2023-12-29T06:40:34;7.90;99.90
5344;DHT22;2694;48.954;8.928;2023-12-29T06:43:03;7.90;99.90
5344;DHT22;2694;48.954;8.928;2023-12-29T06:45:30;7.80;99.90
5344;DHT22;2694;48.954;8.928;2023-12-29T06:47:57;7.80;99.90
5344;DHT22;2694;48.954;8.928;2023-12-29T06:50:24;7.80;99.90
5344;DHT22;2694;48.954;8.928;2023-12-29T06:52:52;7.80;99.90
5344;DHT22;2694;48.954;8.928;2023-12-29T06:55:19;7.90;99.90
5344;DHT22;2694;48.954;8.928;2023-12-29T06:57:46;8.00;99.90
5344;DHT22;2694;48.954;8.928;2023-12-29T07:00:17;8.10;99.90
5344;DHT22;2694;48.954;8.928;2023-12-29T07:02:44;8.10;99.90
5344;DHT22;2694;48.954;8.928;2023-12-29T07:05:12;8.00;99.90
5344;DHT22;2694;48.954;8.928;2023-12-29T07:07:40;8.00;99.90
5344;DHT22;2694;48.954;8.928;2023-12-29T07:10:08;7.90;99.90
5344;DHT22;2694;48.954;8.928;2023-12-29T07:12:35;7.90;99.90
5344;DHT22;2694;48.954;8.928;2023-12-29T07:15:02;7.90;99.90
5344;DHT22;2694;48.954;8.928;2023-12-29T07:17:31;7.90;99.90
5344;DHT22;2694;48.954;8.928;2023-12-29T07:19:58;8.00;99.90
5344;DHT22;2694;48.954;8.928;2023-12-29T07:22:25;7.90;99.90
5344;DHT22;2694;48.954;8.928;2023-12-29T07:24:52;7.90;99.90
5344;DHT22;2694;48.954;8.928;2023-12-29T07:27:19;7.90;99.90
5344;DHT22;2694;48.954;8.928;2023-12-29T07:29:47;7.90;99.90
5344;DHT22;2694;48.954;8.928;2023-12-29T07:32:14;7.90;99.90
5344;DHT22;2694;48.954;8.928;2023-12-29T07:34:43;7.80;99.90
5344;DHT22;2694;48.954;8.928;2023-12-29T07:37:10;7.80;99.90
5344;DHT22;2694;48.954;8.928;2023-12-29T07:39:39;7.80;99.90
5344;DHT22;2694;48.954;8.928;2023-12-29T07:42:07;7.80;99.90
5344;DHT22;2694;48.954;8.928;2023-12-29T07:44:34;7.80;99.90
5344;DHT22;2694;48.954;8.928;2023-12-29T07:47:01;7.80;99.90
5344;DHT22;2694;48.954;8.928;2023-12-29T07:49:28;7.90;99.90
5344;DHT22;2694;48.954;8.928;2023-12-29T07:51:59;7.90;99.90
5344;DHT22;2694;48.954;8.928;2023-12-29T07:54:26;7.90;99.90
5344;DHT22;2694;48.954;8.928;2023-12-29T07:56:53;7.90;99.90
5344;DHT22;2694;48.954;8.928;2023-12-29T07:59:20;7.90;99.90
5344;DHT22;2694;48.954;8.928;2023-12-29T08:01:47;7.90;99.90
5344;DHT22;2694;48.954;8.928;2023-12-29T08:04:14;7.90;99.90
5344;DHT22;2694;48.954;8.928;2023-12-29T08:06:41;7.90;99.90
5344;DHT22;2694;48.954;8.928;2023-12-29T08:09:10;8.00;99.90
5344;DHT22;2694;48.954;8.928;2023-12-29T08:11:37;8.10;99.90
5344;DHT22;2694;48.954;8.928;2023-12-29T08:14:04;8.00;99.90
5344;DHT22;2694;48.954;8.928;2023-12-29T08:16:32;8.00;99.90
5344;DHT22;2694;48.954;8.928;2023-12-29T08:18:59;7.80;99.90
5344;DHT22;2694;48.954;8.928;2023-12-29T08:21:26;8.00;99.90
5344;DHT22;2694;48.954;8.928;2023-12-29T08:23:53;8.10;99.90
5344;DHT22;2694;48.954;8.928;2023-12-29T08:26:21;8.10;99.90
5344;DHT22;2694;48.954;8.928;2023-12-29T08:28:48;8.00;99.90
5344;DHT22;2694;48.954;8.928;2023-12-29T08:31:16;8.10;99.90
5344;DHT22;2694;48.954;8.928;2023-12-29T08:33:43;8.10;99.90
5344;DHT22;2694;48.954;8.928;2023-12-29T08:36:11;8.10;99.90
5344;DHT22;2694;48.954;8.928;2023-12-29T08:38:39;8.20;99.90
5344;DHT22;2694;48.954;8.928;2023-12-29T08:41:05;8.20;99.90
5344;DHT22;2694;48.954;8.928;2023-12-29T08:43:34;8.20;99.90
5344;DHT22;2694;48.954;8.928;2023-12-29T08:46:02;8.20;99.90
5344;DHT22;2694;48.954;8.928;2023-12-29T08:48:29;8.20;99.90
5344;DHT22;2694;48.954;8.928;2023-12-29T08:50:56;8.40;99.90
5344;DHT22;2694;48.954;8.928;2023-12-29T08:53:23;8.40;99.90
5344;DHT22;2694;48.954;8.928;2023-12-29T08:55:50;8.40;99.90
5344;DHT22;2694;48.954;8.928;2023-12-29T08:58:17;8.40;99.90
5344;DHT22;2694;48.954;8.928;2023-12-29T09:00:46;8.40;99.90
5344;DHT22;2694;48.954;8.928;2023-12-29T09:03:13;8.30;99.90
5344;DHT22;2694;48.954;8.928;2023-12-29T09:05:40;8.30;99.90
5344;DHT22;2694;48.954;8.928;2023-12-29T09:08:08;8.30;99.90
5344;DHT22;2694;48.954;8.928;2023-12-29T09:10:35;8.40;99.90
5344;DHT22;2694;48.954;8.928;2023-12-29T09:13:04;8.40;99.90
5344;DHT22;2694;48.954;8.928;2023-12-29T09:15:32;8.50;99.90
5344;DHT22;2694;48.954;8.928;2023-12-29T09:18:01;8.60;99.90
5344;DHT22;2694;48.954;8.928;2023-12-29T09:20:28;8.60;99.90
5344;DHT22;2694;48.954;8.928;2023-12-29T09:22:56;8.70;99.90
5344;DHT22;2694;48.954;8.928;2023-12-29T09:25:23;8.70;99.90
5344;DHT22;2694;48.954;8.928;2023-12-29T09:27:51;8.70;99.90
5344;DHT22;2694;48.954;8.928;2023-12-29T09:30:19;8.90;99.90
5344;DHT22;2694;48.954;8.928;2023-12-29T09:32:46;9.10;99.90
5344;DHT22;2694;48.954;8.928;2023-12-29T09:35:14;9.10;99.90
5344;DHT22;2694;48.954;8.928;2023-12-29T09:37:42;9.10;99.90
5344;DHT22;2694;48.954;8.928;2023-12-29T09:40:10;9.20;99.90
5344;DHT22;2694;48.954;8.928;2023-12-29T09:42:38;9.30;99.90
5344;DHT22;2694;48.954;8.928;2023-12-29T09:45:09;9.30;99.90
5344;DHT22;2694;48.954;8.928;2023-12-29T09:47:39;9.30;99.90
5344;DHT22;2694;48.954;8.928;2023-12-29T09:50:07;9.30;99.90
5344;DHT22;2694;48.954;8.928;2023-12-29T09:52:39;9.30;99.90
5344;DHT22;2694;48.954;8.928;2023-12-29T09:55:09;8.50;99.90
5344;DHT22;2694;48.954;8.928;2023-12-29T09:57:37;9.30;99.90
5344;DHT22;2694;48.954;8.928;2023-12-29T10:00:05;9.40;99.90
5344;DHT22;2694;48.954;8.928;2023-12-29T10:02:33;9.50;99.90
5344;DHT22;2694;48.954;8.928;2023-12-29T10:05:03;9.60;99.90
5344;DHT22;2694;48.954;8.928;2023-12-29T10:07:35;9.60;99.90
5344;DHT22;2694;48.954;8.928;2023-12-29T10:10:06;9.70;99.90
5344;DHT22;2694;48.954;8.928;2023-12-29T10:12:34;9.80;99.90
5344;DHT22;2694;48.954;8.928;2023-12-29T10:15:06;10.00;99.90
5344;DHT22;2694;48.954;8.928;2023-12-29T10:17:43;10.10;99.90
5344;DHT22;2694;48.954;8.928;2023-12-29T10:20:25;10.10;99.90
5344;DHT22;2694;48.954;8.928;2023-12-29T10:23:05;10.20;99.90
5344;DHT22;2694;48.954;8.928;2023-12-29T10:25:35;10.20;99.90
5344;DHT22;2694;48.954;8.928;2023-12-29T10:28:03;10.30;99.90
5344;DHT22;2694;48.954;8.928;2023-12-29T10:30:31;10.40;99.90
5344;DHT22;2694;48.954;8.928;2023-12-29T10:32:58;10.50;99.90
5344;DHT22;2694;48.954;8.928;2023-12-29T10:35:29;10.60;99.90
5344;DHT22;2694;48.954;8.928;2023-12-29T10:38:08;10.70;99.90
5344;DHT22;2694;48.954;8.928;2023-12-29T10:40:36;10.90;99.90
5344;DHT22;2694;48.954;8.928;2023-12-29T10:43:03;11.00;99.90
5344;DHT22;2694;48.954;8.928;2023-12-29T10:45:33;11.10;99.90
5344;DHT22;2694;48.954;8.928;2023-12-29T10:48:00;11.20;99.90
5344;DHT22;2694;48.954;8.928;2023-12-29T10:50:28;11.30;99.90
5344;DHT22;2694;48.954;8.928;2023-12-29T10:53:10;11.30;99.90
5344;DHT22;2694;48.954;8.928;2023-12-29T10:55:39;11.30;99.90
5344;DHT22;2694;48.954;8.928;2023-12-29T10:58:07;11.40;99.90
5344;DHT22;2694;48.954;8.928;2023-12-29T11:00:34;11.50;99.90
5344;DHT22;2694;48.954;8.928;2023-12-29T11:03:02;11.50;99.90
5344;DHT22;2694;48.954;8.928;2023-12-29T11:05:30;11.50;99.90
5344;DHT22;2694;48.954;8.928;2023-12-29T11:07:57;11.50;99.90
5344;DHT22;2694;48.954;8.928;2023-12-29T11:10:25;11.50;99.90
5344;DHT22;2694;48.954;8.928;2023-12-29T11:12:54;11.50;99.90
5344;DHT22;2694;48.954;8.928;2023-12-29T11:15:24;11.60;99.90
5344;DHT22;2694;48.954;8.928;2023-12-29T11:17:54;10.90;99.90
5344;DHT22;2694;48.954;8.928;2023-12-29T11:20:23;11.60;99.90
5344;DHT22;2694;48.954;8.928;2023-12-29T11:22:52;11.80;99.90
5344;DHT22;2694;48.954;8.928;2023-12-29T11:25:19;11.80;99.90
5344;DHT22;2694;48.954;8.928;2023-12-29T11:27:48;12.00;99.90
5344;DHT22;2694;48.954;8.928;2023-12-29T11:30:18;11.90;99.90
5344;DHT22;2694;48.954;8.928;2023-12-29T11:32:49;12.00;99.90
5344;DHT22;2694;48.954;8.928;2023-12-29T11:35:22;12.00;99.90
5344;DHT22;2694;48.954;8.928;2023-12-29T11:38:18;12.00;99.90
5344;DHT22;2694;48.954;8.928;2023-12-29T11:40:52;12.10;99.90
5344;DHT22;2694;48.954;8.928;2023-12-29T11:43:21;12.00;99.90
5344;DHT22;2694;48.954;8.928;2023-12-29T11:45:50;11.90;99.90
5344;DHT22;2694;48.954;8.928;2023-12-29T11:51:35;11.90;99.90
5344;DHT22;2694;48.954;8.928;2023-12-29T11:54:03;11.90;99.90
5344;DHT22;2694;48.954;8.928;2023-12-29T11:56:33;11.90;99.90
5344;DHT22;2694;48.954;8.928;2023-12-29T11:59:14;11.90;99.90
5344;DHT22;2694;48.954;8.928;2023-12-29T12:01:42;11.90;99.90
5344;DHT22;2694;48.954;8.928;2023-12-29T12:04:34;11.90;99.90
5344;DHT22;2694;48.954;8.928;2023-12-29T12:07:03;11.90;99.90
5344;DHT22;2694;48.954;8.928;2023-12-29T12:09:30;11.90;99.90
5344;DHT22;2694;48.954;8.928;2023-12-29T12:12:00;11.90;99.90
5344;DHT22;2694;48.954;8.928;2023-12-29T12:14:49;11.90;99.90
5344;DHT22;2694;48.954;8.928;2023-12-29T12:17:31;11.90;99.90
5344;DHT22;2694;48.954;8.928;2023-12-29T12:20:00;12.00;99.90
5344;DHT22;2694;48.954;8.928;2023-12-29T12:22:30;12.00;99.90
5344;DHT22;2694;48.954;8.928;2023-12-29T12:24:57;12.10;99.90
5344;DHT22;2694;48.954;8.928;2023-12-29T12:27:25;12.10;99.90
5344;DHT22;2694;48.954;8.928;2023-12-29T12:29:54;12.10;99.90
5344;DHT22;2694;48.954;8.928;2023-12-29T12:32:23;12.90;99.90
5344;DHT22;2694;48.954;8.928;2023-12-29T12:34:52;12.10;99.90
5344;DHT22;2694;48.954;8.928;2023-12-29T12:37:20;12.10;99.90
5344;DHT22;2694;48.954;8.928;2023-12-29T12:39:47;12.10;99.90
5344;DHT22;2694;48.954;8.928;2023-12-29T12:42:15;12.00;99.90
5344;DHT22;2694;48.954;8.928;2023-12-29T12:44:50;12.00;99.90
5344;DHT22;2694;48.954;8.928;2023-12-29T12:47:26;11.90;99.90
5344;DHT22;2694;48.954;8.928;2023-12-29T12:49:55;11.90;99.90
5344;DHT22;2694;48.954;8.928;2023-12-29T12:52:22;11.80;99.90
5344;DHT22;2694;48.954;8.928;2023-12-29T12:54:49;11.80;99.90
5344;DHT22;2694;48.954;8.928;2023-12-29T12:57:20;11.80;99.90
5344;DHT22;2694;48.954;8.928;2023-12-29T12:59:49;11.70;99.90
5344;DHT22;2694;48.954;8.928;2023-12-29T13:02:17;11.70;99.90
5344;DHT22;2694;48.954;8.928;2023-12-29T13:04:45;11.70;99.90
5344;DHT22;2694;48.954;8.928;2023-12-29T13:07:17;11.60;99.90
5344;DHT22;2694;48.954;8.928;2023-12-29T13:09:45;11.60;99.90
5344;DHT22;2694;48.954;8.928;2023-12-29T13:12:13;11.50;99.90
5344;DHT22;2694;48.954;8.928;2023-12-29T13:14:42;11.50;99.90
5344;DHT22;2694;48.954;8.928;2023-12-29T13:17:10;11.40;99.90
5344;DHT22;2694;48.954;8.928;2023-12-29T13:19:38;11.40;99.90
5344;DHT22;2694;48.954;8.928;2023-12-29T13:22:07;11.40;99.90
5344;DHT22;2694;48.954;8.928;2023-12-29T13:24:43;11.40;99.90
5344;DHT22;2694;48.954;8.928;2023-12-29T13:27:11;11.40;99.90
5344;DHT22;2694;48.954;8.928;2023-12-29T13:29:39;11.40;99.90
5344;DHT22;2694;48.954;8.928;2023-12-29T13:32:12;11.40;99.90
5344;DHT22;2694;48.954;8.928;2023-12-29T13:34:50;11.30;99.90
5344;DHT22;2694;48.954;8.928;2023-12-29T13:37:22;11.40;99.90
5344;DHT22;2694;48.954;8.928;2023-12-29T13:39:57;11.40;99.90
5344;DHT22;2694;48.954;8.928;2023-12-29T13:42:28;10.20;99.90
5344;DHT22;2694;48.954;8.928;2023-12-29T13:44:57;11.40;99.90
5344;DHT22;2694;48.954;8.928;2023-12-29T13:47:26;11.50;99.90
5344;DHT22;2694;48.954;8.928;2023-12-29T13:49:53;11.40;99.90
5344;DHT22;2694;48.954;8.928;2023-12-29T13:52:21;11.50;99.90
5344;DHT22;2694;48.954;8.928;2023-12-29T13:54:49;11.40;99.90
5344;DHT22;2694;48.954;8.928;2023-12-29T13:57:18;11.50;99.90
5344;DHT22;2694;48.954;8.928;2023-12-29T13:59:45;11.50;99.90
5344;DHT22;2694;48.954;8.928;2023-12-29T14:02:24;11.50;99.90
5344;DHT22;2694;48.954;8.928;2023-12-29T14:05:14;11.40;99.90
5344;DHT22;2694;48.954;8.928;2023-12-29T14:07:46;11.40;99.90
5344;DHT22;2694;48.954;8.928;2023-12-29T14:10:14;11.30;99.90
5344;DHT22;2694;48.954;8.928;2023-12-29T14:12:43;11.30;99.90
5344;DHT22;2694;48.954;8.928;2023-12-29T14:15:11;11.30;99.90
5344;DHT22;2694;48.954;8.928;2023-12-29T14:17:39;11.30;99.90
5344;DHT22;2694;48.954;8.928;2023-12-29T14:20:08;11.20;99.90
5344;DHT22;2694;48.954;8.928;2023-12-29T14:22:35;11.20;99.90
5344;DHT22;2694;48.954;8.928;2023-12-29T14:25:04;11.20;99.90
5344;DHT22;2694;48.954;8.928;2023-12-29T14:27:31;12.00;99.90
5344;DHT22;2694;48.954;8.928;2023-12-29T14:30:00;11.10;99.90
5344;DHT22;2694;48.954;8.928;2023-12-29T14:32:27;11.10;99.90
5344;DHT22;2694;48.954;8.928;2023-12-29T14:34:56;11.00;99.90
5344;DHT22;2694;48.954;8.928;2023-12-29T14:37:22;11.10;99.90
5344;DHT22;2694;48.954;8.928;2023-12-29T14:39:51;11.00;99.90
5344;DHT22;2694;48.954;8.928;2023-12-29T14:42:18;11.00;99.90
5344;DHT22;2694;48.954;8.928;2023-12-29T14:44:46;11.00;99.90
5344;DHT22;2694;48.954;8.928;2023-12-29T14:47:16;10.90;99.90
5344;DHT22;2694;48.954;8.928;2023-12-29T14:49:44;10.90;99.90
5344;DHT22;2694;48.954;8.928;2023-12-29T14:52:11;10.80;99.90
5344;DHT22;2694;48.954;8.928;2023-12-29T14:54:39;10.80;99.90
5344;DHT22;2694;48.954;8.928;2023-12-29T14:57:09;10.80;99.90
5344;DHT22;2694;48.954;8.928;2023-12-29T14:59:36;10.70;99.90
5344;DHT22;2694;48.954;8.928;2023-12-29T15:02:04;10.70;99.90
5344;DHT22;2694;48.954;8.928;2023-12-29T15:04:35;10.60;99.90
5344;DHT22;2694;48.954;8.928;2023-12-29T15:07:05;10.60;99.90
5344;DHT22;2694;48.954;8.928;2023-12-29T15:09:32;10.50;99.90
5344;DHT22;2694;48.954;8.928;2023-12-29T15:12:01;10.50;99.90
5344;DHT22;2694;48.954;8.928;2023-12-29T15:14:28;10.50;99.90
5344;DHT22;2694;48.954;8.928;2023-12-29T15:16:55;10.50;99.90
5344;DHT22;2694;48.954;8.928;2023-12-29T15:19:23;10.40;99.90
5344;DHT22;2694;48.954;8.928;2023-12-29T15:21:51;10.40;99.90
5344;DHT22;2694;48.954;8.928;2023-12-29T15:24:19;10.40;99.90
5344;DHT22;2694;48.954;8.928;2023-12-29T15:26:47;10.40;99.90
5344;DHT22;2694;48.954;8.928;2023-12-29T15:29:14;10.50;99.90
5344;DHT22;2694;48.954;8.928;2023-12-29T15:31:42;10.50;99.90
5344;DHT22;2694;48.954;8.928;2023-12-29T15:34:11;10.50;99.90
5344;DHT22;2694;48.954;8.928;2023-12-29T15:36:38;10.50;99.90
5344;DHT22;2694;48.954;8.928;2023-12-29T15:39:07;10.50;99.90
5344;DHT22;2694;48.954;8.928;2023-12-29T15:41:34;10.50;99.90
5344;DHT22;2694;48.954;8.928;2023-12-29T15:44:03;10.50;99.90
5344;DHT22;2694;48.954;8.928;2023-12-29T15:46:33;10.50;99.90
5344;DHT22;2694;48.954;8.928;2023-12-29T15:49:01;10.40;99.90
5344;DHT22;2694;48.954;8.928;2023-12-29T15:51:29;10.40;99.90
5344;DHT22;2694;48.954;8.928;2023-12-29T15:53:57;10.40;99.90
5344;DHT22;2694;48.954;8.928;2023-12-29T15:56:25;10.30;99.90
5344;DHT22;2694;48.954;8.928;2023-12-29T15:58:53;10.30;99.90
5344;DHT22;2694;48.954;8.928;2023-12-29T16:01:21;10.20;99.90
5344;DHT22;2694;48.954;8.928;2023-12-29T16:03:50;10.00;99.90
5344;DHT22;2694;48.954;8.928;2023-12-29T16:06:20;10.20;99.90
5344;DHT22;2694;48.954;8.928;2023-12-29T16:08:48;10.20;99.90
5344;DHT22;2694;48.954;8.928;2023-12-29T16:11:20;10.20;99.90
5344;DHT22;2694;48.954;8.928;2023-12-29T16:13:49;9.60;99.90
5344;DHT22;2694;48.954;8.928;2023-12-29T16:16:16;10.10;99.90
5344;DHT22;2694;48.954;8.928;2023-12-29T16:18:44;10.20;99.90
5344;DHT22;2694;48.954;8.928;2023-12-29T16:21:13;10.20;99.90
5344;DHT22;2694;48.954;8.928;2023-12-29T16:23:42;10.20;99.90